Shagang Hongfa — 9V9138 — position and weather

sailwx.info

Track history (hours):
 
Tides and Currents Weather Stations Pressure Air Temp Water Temp Dewpoint Dewpoint Depression Visibility Wind Speed Wind Dir Waves Ship Positions

Shagang Hongfa

Last reported at 2017-Dec-08 11:11 UTC. Time now 2017-Dec-18 03:27 UTC.
Position N 25°22' E 122°44'.
Warning: this ship's position is 9 days out of date.

Length 292 m; draft 18.2 m.

Type: Cargo ship. MMSI: 566178000.

Date/timePositionNaut miles runAvg speedWind from/ knotsBaromVisibWave heightAir tempDewpointWater temp
2017-Dec-08 11:11N 25°22' E 122°44'2 8.0
2017-Dec-08 11:00N 25°21' E 122°44'4 8.2
2017-Dec-08 10:30N 25°17' E 122°42'4 8.4
2017-Dec-08 10:00N 25°13' E 122°40'4 8.3
2017-Dec-08 09:30N 25°09' E 122°38'4 8.1
2017-Dec-08 09:00N 25°05' E 122°37'4 8.1
2017-Dec-08 08:30N 25°02' E 122°35'4 8.2
2017-Dec-08 08:00N 24°58' E 122°34'4 8.5
2017-Dec-08 07:30N 24°54' E 122°32'4 8.2
2017-Dec-08 07:00N 24°50' E 122°31'4 8.6
2017-Dec-08 06:30N 24°46' E 122°29'5 9.0
2017-Dec-08 06:00N 24°42' E 122°28'4 8.9
2017-Dec-08 05:30N 24°37' E 122°26'4 8.7
2017-Dec-08 05:00N 24°33' E 122°24'4 8.7
2017-Dec-08 04:30N 24°29' E 122°23'4 9.0
2017-Dec-08 04:00N 24°25' E 122°21'5 9.6
2017-Dec-08 03:30N 24°21' E 122°19'5 9.3
2017-Dec-08 03:00N 24°16' E 122°17'4 8.6
2017-Dec-08 02:30N 24°12' E 122°15'4 8.6
2017-Dec-08 02:00N 24°08' E 122°14'4 7.9
2017-Dec-08 01:30N 24°04' E 122°12'4 7.9
2017-Dec-08 01:00N 24°01' E 122°11'4 7.4
2017-Dec-08 00:30N 23°57' E 122°09'4 7.0
2017-Dec-08 00:00N 23°54' E 122°08'45 8.6
2017-Dec-07 18:46N 23°12' E 121°51'17 9.4
2017-Dec-07 16:55N 22°55' E 121°45'510.6
2017-Dec-07 16:28N 22°51' E 121°43'610.7
2017-Dec-07 15:55N 22°46' E 121°40'1710.8
2017-Dec-07 14:18N 22°29' E 121°33'2610.4
2017-Dec-07 11:50N 22°06' E 121°23'410.7
2017-Dec-07 11:27N 22°02' E 121°21'511.1
2017-Dec-07 11:00N 21°57' E 121°19'  
Track history (hours):
 
Tides and Currents Weather Stations Pressure Air Temp Water Temp Dewpoint Dewpoint Depression Visibility Wind Speed Wind Dir Waves Ship Positions

Shagang Hongfa

Last reported at 2017-Dec-08 11:11 UTC. Time now 2017-Dec-18 03:27 UTC.
Position N 25°22' E 122°44'.
Warning: this ship's position is 9 days out of date.

Length 292 m; draft 18.2 m.

Type: Cargo ship. MMSI: 566178000.

Date/timePositionNaut miles runAvg speedWind from/ knotsBaromVisibWave heightAir tempDewpointWater temp
2017-Dec-08 11:11N 25°22' E 122°44'2 8.0
2017-Dec-08 11:00N 25°21' E 122°44'4 8.2
2017-Dec-08 10:30N 25°17' E 122°42'4 8.4
2017-Dec-08 10:00N 25°13' E 122°40'4 8.3
2017-Dec-08 09:30N 25°09' E 122°38'4 8.1
2017-Dec-08 09:00N 25°05' E 122°37'4 8.1
2017-Dec-08 08:30N 25°02' E 122°35'4 8.2
2017-Dec-08 08:00N 24°58' E 122°34'4 8.5
2017-Dec-08 07:30N 24°54' E 122°32'4 8.2
2017-Dec-08 07:00N 24°50' E 122°31'4 8.6
2017-Dec-08 06:30N 24°46' E 122°29'5 9.0
2017-Dec-08 06:00N 24°42' E 122°28'4 8.9
2017-Dec-08 05:30N 24°37' E 122°26'4 8.7
2017-Dec-08 05:00N 24°33' E 122°24'4 8.7
2017-Dec-08 04:30N 24°29' E 122°23'4 9.0
2017-Dec-08 04:00N 24°25' E 122°21'5 9.6
2017-Dec-08 03:30N 24°21' E 122°19'5 9.3
2017-Dec-08 03:00N 24°16' E 122°17'4 8.6
2017-Dec-08 02:30N 24°12' E 122°15'4 8.6
2017-Dec-08 02:00N 24°08' E 122°14'4 7.9
2017-Dec-08 01:30N 24°04' E 122°12'4 7.9
2017-Dec-08 01:00N 24°01' E 122°11'4 7.4
2017-Dec-08 00:30N 23°57' E 122°09'4 7.0
2017-Dec-08 00:00N 23°54' E 122°08'45 8.6
2017-Dec-07 18:46N 23°12' E 121°51'17 9.4
2017-Dec-07 16:55N 22°55' E 121°45'510.6
2017-Dec-07 16:28N 22°51' E 121°43'610.7
2017-Dec-07 15:55N 22°46' E 121°40'1710.8
2017-Dec-07 14:18N 22°29' E 121°33'2610.4
2017-Dec-07 11:50N 22°06' E 121°23'410.7
2017-Dec-07 11:27N 22°02' E 121°21'511.1
2017-Dec-07 11:00N 21°57' E 121°19'  

Dump ship's entire track history